createdAt,value
2022-12-09T00:01:18.262Z,3.50
2022-12-09T00:04:05.629Z,3.50
2022-12-09T00:06:53.165Z,3.50
2022-12-09T00:09:40.380Z,3.50
2022-12-09T00:12:27.591Z,3.50
2022-12-09T00:15:15.008Z,3.50
2022-12-09T00:18:02.168Z,3.50
2022-12-09T00:20:49.474Z,3.60
2022-12-09T00:23:36.827Z,3.60
2022-12-09T00:26:25.510Z,3.50
2022-12-09T00:29:13.305Z,3.50
2022-12-09T00:32:00.587Z,3.60
2022-12-09T00:34:49.055Z,3.60
2022-12-09T00:37:36.186Z,3.60
2022-12-09T00:40:23.550Z,3.60
2022-12-09T00:43:10.647Z,3.60
2022-12-09T00:45:58.388Z,3.60
2022-12-09T00:48:46.113Z,3.60
2022-12-09T00:51:33.667Z,3.60
2022-12-09T00:54:21.121Z,3.50
2022-12-09T00:57:08.418Z,3.60
2022-12-09T00:59:55.505Z,3.60
2022-12-09T01:02:42.874Z,3.60
2022-12-09T01:05:30.331Z,3.60
2022-12-09T01:08:17.686Z,3.60
2022-12-09T01:11:13.457Z,3.60
2022-12-09T01:14:03.098Z,3.50
2022-12-09T01:16:50.497Z,3.50
2022-12-09T01:19:39.329Z,3.40
2022-12-09T01:22:26.456Z,3.40
2022-12-09T01:25:14.069Z,3.40
2022-12-09T01:28:01.248Z,3.50
2022-12-09T01:30:53.067Z,3.50
2022-12-09T01:33:41.498Z,3.50
2022-12-09T01:36:30.446Z,3.40
2022-12-09T01:39:18.364Z,3.40
2022-12-09T01:42:06.361Z,3.40
2022-12-09T01:45:30.810Z,3.40
2022-12-09T01:48:25.728Z,3.50
2022-12-09T01:51:16.878Z,3.50
2022-12-09T01:54:04.508Z,3.50
2022-12-09T01:56:52.533Z,3.50
2022-12-09T01:59:40.520Z,3.50
2022-12-09T02:02:30.639Z,3.60
2022-12-09T02:05:20.324Z,3.50
2022-12-09T02:08:16.703Z,3.50
2022-12-09T02:11:10.987Z,3.50
2022-12-09T02:14:08.222Z,3.50
2022-12-09T02:17:10.650Z,3.50
2022-12-09T02:20:16.733Z,3.50
2022-12-09T02:23:16.395Z,3.50
2022-12-09T02:26:19.086Z,3.50
2022-12-09T02:29:24.308Z,3.40
2022-12-09T02:32:36.508Z,3.40
2022-12-09T02:35:43.965Z,3.50
2022-12-09T02:38:33.456Z,3.50
2022-12-09T02:41:26.328Z,3.50
2022-12-09T02:44:17.621Z,3.50
2022-12-09T02:47:07.423Z,3.50
2022-12-09T02:50:09.760Z,3.50
2022-12-09T02:53:02.045Z,3.50
2022-12-09T02:55:50.486Z,3.50
2022-12-09T02:58:38.001Z,3.40
2022-12-09T03:01:36.792Z,3.40
2022-12-09T03:04:27.926Z,3.50
2022-12-09T03:07:26.858Z,3.40
2022-12-09T03:10:31.124Z,3.30
2022-12-09T03:13:23.356Z,3.40
2022-12-09T03:16:37.621Z,3.40
2022-12-09T03:19:33.804Z,3.40
2022-12-09T03:22:26.034Z,3.50
2022-12-09T03:25:24.573Z,3.40
2022-12-09T03:28:32.097Z,3.40
2022-12-09T03:31:24.443Z,3.40
2022-12-09T03:34:17.084Z,3.40
2022-12-09T03:37:06.662Z,3.40
2022-12-09T03:39:55.995Z,3.40
2022-12-09T03:42:49.292Z,3.40
2022-12-09T03:45:37.121Z,3.40
2022-12-09T03:48:25.100Z,3.40
2022-12-09T03:51:43.258Z,3.50
2022-12-09T03:54:39.266Z,3.50
2022-12-09T03:57:29.209Z,3.30
2022-12-09T04:00:18.219Z,3.30
2022-12-09T04:03:07.815Z,3.30
2022-12-09T04:05:55.893Z,3.30
2022-12-09T04:08:43.388Z,3.30
2022-12-09T04:11:34.367Z,3.10
2022-12-09T04:14:22.362Z,3.10
2022-12-09T04:17:12.205Z,3.10
2022-12-09T04:19:59.452Z,3.10
2022-12-09T04:22:46.910Z,3.10
2022-12-09T04:25:34.103Z,3.10
2022-12-09T04:28:21.763Z,3.00
2022-12-09T04:31:13.782Z,3.00
2022-12-09T04:34:08.359Z,3.00
2022-12-09T04:36:56.750Z,3.00
2022-12-09T04:39:44.154Z,3.00
2022-12-09T04:42:31.451Z,3.00
2022-12-09T04:45:18.647Z,3.10
2022-12-09T04:48:06.872Z,3.10
2022-12-09T04:50:54.201Z,3.00
2022-12-09T04:53:42.003Z,3.00
2022-12-09T04:56:29.485Z,3.00
2022-12-09T04:59:16.963Z,2.90
2022-12-09T05:02:04.420Z,3.00
2022-12-09T05:04:51.721Z,3.00
2022-12-09T05:07:39.743Z,3.00
2022-12-09T05:10:27.286Z,3.00
2022-12-09T05:13:04.474Z,3.00
2022-12-09T05:15:51.535Z,2.90
2022-12-09T05:18:39.717Z,2.90
2022-12-09T05:21:28.100Z,2.90
2022-12-09T05:24:15.568Z,2.90
2022-12-09T05:27:03.270Z,2.80
2022-12-09T05:29:50.480Z,2.80
2022-12-09T05:32:37.853Z,2.90
2022-12-09T05:35:24.978Z,2.90
2022-12-09T05:38:12.831Z,2.90
2022-12-09T05:41:04.091Z,2.90
2022-12-09T05:43:51.949Z,2.90
2022-12-09T05:46:39.093Z,3.00
2022-12-09T05:49:26.888Z,2.90
2022-12-09T05:52:14.563Z,2.90
2022-12-09T05:55:05.374Z,2.90
2022-12-09T05:57:52.752Z,2.90
2022-12-09T06:00:40.275Z,2.90
2022-12-09T06:03:28.262Z,2.90
2022-12-09T06:06:17.843Z,2.90
2022-12-09T06:09:08.872Z,3.00
2022-12-09T06:11:56.339Z,3.00
2022-12-09T06:14:43.750Z,3.00
2022-12-09T06:17:30.871Z,3.00
2022-12-09T06:20:18.877Z,3.00
2022-12-09T06:23:06.607Z,3.00
2022-12-09T06:25:53.701Z,3.00
2022-12-09T06:28:41.089Z,3.00
2022-12-09T06:31:30.172Z,3.00
2022-12-09T06:34:17.482Z,3.00
2022-12-09T06:37:05.204Z,3.00
2022-12-09T06:39:52.218Z,3.00
2022-12-09T06:42:39.573Z,3.00
2022-12-09T06:45:26.993Z,3.10
2022-12-09T06:48:14.034Z,3.00
2022-12-09T06:51:02.034Z,3.00
2022-12-09T06:53:49.674Z,2.80
2022-12-09T06:56:37.332Z,2.80
2022-12-09T06:59:25.454Z,2.80
2022-12-09T07:02:13.371Z,2.80
2022-12-09T07:05:00.936Z,2.80
2022-12-09T07:07:52.398Z,2.80
2022-12-09T07:10:41.785Z,2.80
2022-12-09T07:13:30.062Z,2.80
2022-12-09T07:16:17.875Z,2.70
2022-12-09T07:19:05.639Z,2.70
2022-12-09T07:21:53.260Z,2.80
2022-12-09T07:24:41.288Z,2.80
2022-12-09T07:27:28.642Z,2.80
2022-12-09T07:30:16.264Z,2.70
2022-12-09T07:33:03.318Z,2.80
2022-12-09T07:35:53.896Z,2.80
2022-12-09T07:38:41.017Z,2.90
2022-12-09T07:41:29.122Z,2.80
2022-12-09T07:44:16.176Z,2.90
2022-12-09T07:47:03.364Z,2.90
2022-12-09T07:49:50.727Z,3.00
2022-12-09T07:52:37.820Z,3.00
2022-12-09T07:55:25.706Z,2.90
2022-12-09T07:58:12.947Z,3.00
2022-12-09T08:01:11.441Z,3.10
2022-12-09T08:03:59.479Z,3.10
2022-12-09T08:06:47.196Z,3.00
2022-12-09T08:09:34.900Z,3.00
2022-12-09T08:12:23.708Z,3.00
2022-12-09T08:15:11.511Z,3.00
2022-12-09T08:17:59.556Z,3.10
2022-12-09T08:20:47.034Z,3.10
2022-12-09T08:23:34.925Z,3.00
2022-12-09T08:26:24.820Z,3.10
2022-12-09T08:29:14.294Z,3.10
2022-12-09T08:32:02.244Z,3.10
2022-12-09T08:34:49.696Z,3.10
2022-12-09T08:37:37.024Z,3.10
2022-12-09T08:40:24.817Z,3.10
2022-12-09T08:43:12.715Z,3.10
2022-12-09T08:46:00.458Z,3.10
2022-12-09T08:48:48.161Z,3.10
2022-12-09T08:51:36.639Z,3.00
2022-12-09T08:54:24.436Z,3.00
2022-12-09T08:57:12.402Z,3.00
2022-12-09T08:59:59.806Z,3.10
2022-12-09T09:02:47.610Z,3.20
2022-12-09T09:05:35.174Z,3.10
2022-12-09T09:08:22.818Z,3.10
2022-12-09T09:11:12.531Z,3.10
2022-12-09T09:14:00.536Z,3.00
2022-12-09T09:16:48.153Z,3.00
2022-12-09T09:19:36.774Z,3.00
2022-12-09T09:22:24.222Z,3.00
2022-12-09T09:25:11.742Z,3.00
2022-12-09T09:27:59.757Z,3.00
2022-12-09T09:30:50.365Z,3.10
2022-12-09T09:33:38.110Z,3.10
2022-12-09T09:36:25.757Z,3.00
2022-12-09T09:39:13.806Z,2.90
2022-12-09T09:42:08.611Z,3.00
2022-12-09T09:44:58.298Z,3.00
2022-12-09T09:47:50.223Z,3.00
2022-12-09T09:50:49.548Z,3.00
2022-12-09T09:53:37.111Z,3.10
2022-12-09T09:56:45.954Z,3.10
2022-12-09T09:59:36.789Z,3.20
2022-12-09T10:02:45.893Z,3.30
2022-12-09T10:05:38.437Z,3.40
2022-12-09T10:08:48.671Z,3.50
2022-12-09T10:11:52.834Z,3.50
2022-12-09T10:15:05.249Z,3.60
2022-12-09T10:17:58.135Z,3.60
2022-12-09T10:20:46.127Z,3.60
2022-12-09T10:23:33.446Z,3.70
2022-12-09T10:26:32.792Z,3.70
2022-12-09T10:29:49.153Z,3.80
2022-12-09T10:32:37.806Z,3.90
2022-12-09T10:35:28.732Z,4.00
2022-12-09T10:38:19.075Z,4.00
2022-12-09T10:41:15.907Z,3.90
2022-12-09T10:44:22.479Z,3.90
2022-12-09T10:47:27.112Z,3.80
2022-12-09T10:50:29.989Z,3.90
2022-12-09T10:53:17.343Z,3.90
2022-12-09T10:56:05.124Z,4.00
2022-12-09T10:59:17.256Z,3.90
2022-12-09T11:02:11.027Z,4.00
2022-12-09T11:05:26.506Z,4.10
2022-12-09T11:08:23.125Z,4.20
2022-12-09T11:11:11.113Z,4.30
2022-12-09T11:13:58.470Z,4.40
2022-12-09T11:16:45.733Z,4.40
2022-12-09T11:19:39.054Z,4.40
2022-12-09T11:22:40.314Z,4.40
2022-12-09T11:25:31.928Z,4.40
2022-12-09T11:28:19.563Z,4.40
2022-12-09T11:31:28.927Z,4.40
2022-12-09T11:34:26.150Z,4.30
2022-12-09T11:37:13.673Z,4.40
2022-12-09T11:40:00.724Z,4.40
2022-12-09T11:42:53.716Z,4.40
2022-12-09T11:45:45.606Z,4.40
2022-12-09T11:48:40.106Z,4.20
2022-12-09T11:51:34.520Z,4.30
2022-12-09T11:54:40.234Z,4.30
2022-12-09T11:57:47.186Z,4.30
2022-12-09T12:00:42.770Z,4.20
2022-12-09T12:03:46.307Z,4.20
2022-12-09T12:06:43.587Z,4.30
2022-12-09T12:09:47.684Z,4.30
2022-12-09T12:13:00.276Z,4.30
2022-12-09T12:16:13.298Z,4.50
2022-12-09T12:19:09.636Z,4.60
2022-12-09T12:22:17.428Z,4.60
2022-12-09T12:25:25.666Z,4.70
2022-12-09T12:28:38.737Z,4.70
2022-12-09T12:31:38.015Z,4.80
2022-12-09T12:34:46.802Z,4.90
2022-12-09T12:38:10.587Z,4.90
2022-12-09T12:41:18.579Z,4.90
2022-12-09T12:44:42.740Z,5.00
2022-12-09T12:47:32.667Z,4.90
2022-12-09T12:50:47.309Z,4.90
2022-12-09T12:53:46.407Z,5.00
2022-12-09T12:56:39.404Z,5.00
2022-12-09T12:59:37.573Z,4.90
2022-12-09T13:02:39.857Z,5.00
2022-12-09T13:05:40.819Z,4.90
2022-12-09T13:08:41.298Z,4.90
2022-12-09T13:12:06.353Z,5.00
2022-12-09T13:14:55.326Z,5.00
2022-12-09T13:17:44.385Z,4.90
2022-12-09T13:20:46.461Z,5.00
2022-12-09T13:23:58.378Z,4.90
2022-12-09T13:27:03.841Z,4.90
2022-12-09T13:30:26.855Z,4.90
2022-12-09T13:33:31.606Z,5.00
2022-12-09T13:36:18.626Z,5.00
2022-12-09T13:39:10.903Z,5.00
2022-12-09T13:42:16.849Z,4.90
2022-12-09T13:45:14.112Z,4.90
2022-12-09T13:48:17.030Z,5.00
2022-12-09T13:51:05.122Z,4.90
2022-12-09T13:54:02.581Z,4.90
2022-12-09T13:57:09.772Z,4.90
2022-12-09T14:00:01.712Z,4.80
2022-12-09T14:03:02.594Z,4.70
2022-12-09T14:05:52.424Z,4.70
2022-12-09T14:08:47.788Z,4.70
2022-12-09T14:11:37.445Z,4.70
2022-12-09T14:14:24.857Z,4.80
2022-12-09T14:17:19.859Z,4.80
2022-12-09T14:20:18.836Z,4.70
2022-12-09T14:23:09.874Z,4.70
2022-12-09T14:26:00.563Z,4.70
2022-12-09T14:28:52.978Z,4.60
2022-12-09T14:31:56.330Z,4.60
2022-12-09T14:34:43.840Z,4.60
2022-12-09T14:38:04.514Z,4.50
2022-12-09T14:41:06.634Z,4.50
2022-12-09T14:44:16.020Z,4.50
2022-12-09T14:47:23.412Z,4.60
2022-12-09T14:50:19.579Z,4.40
2022-12-09T14:53:19.017Z,4.40
2022-12-09T14:56:06.354Z,4.30
2022-12-09T14:58:59.550Z,4.20
2022-12-09T15:01:52.649Z,4.20
2022-12-09T15:04:46.169Z,4.20
2022-12-09T15:07:34.374Z,4.20
2022-12-09T15:10:30.878Z,4.10
2022-12-09T15:13:20.107Z,4.10
2022-12-09T15:16:14.268Z,4.00
2022-12-09T15:19:01.296Z,3.90
2022-12-09T15:21:49.543Z,3.80
2022-12-09T15:24:49.675Z,3.70
2022-12-09T15:27:37.926Z,3.50
2022-12-09T15:30:30.580Z,3.40
2022-12-09T15:33:20.064Z,3.30
2022-12-09T15:36:11.821Z,3.30
2022-12-09T15:39:21.261Z,3.20
2022-12-09T15:42:15.146Z,3.10
2022-12-09T15:45:16.720Z,3.10
2022-12-09T15:48:23.476Z,3.10
2022-12-09T15:51:19.251Z,3.10
2022-12-09T15:54:11.037Z,3.00
2022-12-09T15:57:01.436Z,3.00
2022-12-09T15:59:56.478Z,2.90
2022-12-09T16:02:45.744Z,2.90
2022-12-09T16:05:36.025Z,2.90
2022-12-09T16:08:43.033Z,2.90
2022-12-09T16:11:39.219Z,2.90
2022-12-09T16:14:39.915Z,2.90
2022-12-09T16:17:34.786Z,2.90
2022-12-09T16:20:32.902Z,3.00
2022-12-09T16:23:24.367Z,3.00
2022-12-09T16:26:27.130Z,2.90
2022-12-09T16:29:27.372Z,3.00
2022-12-09T16:32:17.590Z,2.90
2022-12-09T16:35:10.531Z,2.90
2022-12-09T16:37:57.401Z,2.90
2022-12-09T16:40:44.411Z,2.90
2022-12-09T16:43:32.767Z,2.90
2022-12-09T16:46:40.902Z,2.90
2022-12-09T16:49:28.010Z,3.00
2022-12-09T16:52:20.868Z,3.10
2022-12-09T16:55:20.321Z,3.10
2022-12-09T16:58:10.795Z,3.00
2022-12-09T17:00:59.358Z,3.00
2022-12-09T17:03:53.354Z,2.90
2022-12-09T17:06:40.441Z,2.90
2022-12-09T17:09:27.425Z,2.80
2022-12-09T17:14:44.787Z,2.70
2022-12-09T17:17:32.023Z,2.70
2022-12-09T17:20:18.956Z,2.70
2022-12-09T17:23:05.948Z,2.70
2022-12-09T17:26:01.126Z,2.70
2022-12-09T17:28:49.452Z,2.70
2022-12-09T17:31:36.607Z,2.70
2022-12-09T17:34:23.607Z,2.80
2022-12-09T17:37:11.380Z,2.70
2022-12-09T17:40:03.422Z,2.80
2022-12-09T17:42:51.381Z,2.80
2022-12-09T17:45:42.090Z,2.70
2022-12-09T17:48:31.326Z,2.70
2022-12-09T17:51:18.671Z,2.70
2022-12-09T17:54:05.979Z,2.70
2022-12-09T17:56:53.018Z,2.60
2022-12-09T17:59:40.289Z,2.60
2022-12-09T18:02:27.650Z,2.50
2022-12-09T18:05:14.840Z,2.40
2022-12-09T18:08:02.016Z,2.40
2022-12-09T18:10:49.041Z,2.40
2022-12-09T18:13:37.062Z,2.30
2022-12-09T18:16:24.216Z,2.30
2022-12-09T18:19:14.888Z,2.20
2022-12-09T18:22:02.754Z,2.20
2022-12-09T18:24:49.891Z,2.10
2022-12-09T18:27:36.882Z,2.10
2022-12-09T18:30:23.925Z,2.00
2022-12-09T18:33:10.984Z,1.90
2022-12-09T18:35:57.921Z,1.90
2022-12-09T18:38:45.410Z,1.90
2022-12-09T18:41:33.328Z,1.90
2022-12-09T18:44:20.627Z,1.90
2022-12-09T18:47:07.770Z,1.80
2022-12-09T18:49:57.688Z,1.70
2022-12-09T18:52:45.163Z,1.60
2022-12-09T18:55:32.445Z,1.60
2022-12-09T18:58:31.536Z,1.50
2022-12-09T19:01:30.208Z,1.40
2022-12-09T19:04:25.897Z,1.40
2022-12-09T19:07:14.147Z,1.40
2022-12-09T19:10:01.437Z,1.40
2022-12-09T19:12:52.656Z,1.30
2022-12-09T19:15:44.438Z,1.30
2022-12-09T19:18:31.962Z,1.40
2022-12-09T19:21:20.412Z,1.40
2022-12-09T19:24:11.436Z,1.40
2022-12-09T19:26:58.661Z,1.50
2022-12-09T19:29:45.841Z,1.50
2022-12-09T19:32:52.488Z,1.50
2022-12-09T19:35:40.148Z,1.60
2022-12-09T19:38:27.361Z,1.70
2022-12-09T19:41:14.547Z,1.70
2022-12-09T19:44:04.147Z,1.70
2022-12-09T19:46:51.262Z,1.70
2022-12-09T19:49:41.166Z,1.70
2022-12-09T19:52:28.379Z,1.70
2022-12-09T19:55:15.610Z,1.60
2022-12-09T19:58:03.919Z,1.60
2022-12-09T20:00:51.272Z,1.60
2022-12-09T20:03:40.650Z,1.60
2022-12-09T20:06:28.130Z,1.60
2022-12-09T20:09:19.712Z,1.50
2022-12-09T20:12:07.015Z,1.50
2022-12-09T20:14:54.247Z,1.50
2022-12-09T20:17:41.577Z,1.50
2022-12-09T20:20:28.760Z,1.50
2022-12-09T20:23:16.192Z,1.60
2022-12-09T20:26:09.339Z,1.60
2022-12-09T20:28:58.006Z,1.60
2022-12-09T20:31:45.171Z,1.60
2022-12-09T20:34:32.612Z,1.60
2022-12-09T20:37:19.996Z,1.60
2022-12-09T20:40:08.133Z,1.60
2022-12-09T20:42:55.471Z,1.70
2022-12-09T20:45:42.681Z,1.70
2022-12-09T20:48:30.043Z,1.70
2022-12-09T20:51:25.795Z,1.60
2022-12-09T20:54:13.724Z,1.60
2022-12-09T20:57:01.590Z,1.60
2022-12-09T20:59:48.767Z,1.60
2022-12-09T21:02:40.340Z,1.60
2022-12-09T21:05:27.489Z,1.80
2022-12-09T21:08:15.864Z,1.70
2022-12-09T21:11:08.873Z,1.60
2022-12-09T21:14:00.969Z,1.60
2022-12-09T21:16:50.600Z,1.60
2022-12-09T21:19:38.042Z,1.60
2022-12-09T21:22:25.364Z,1.70
2022-12-09T21:25:12.901Z,1.70
2022-12-09T21:28:00.074Z,1.70
2022-12-09T21:30:47.502Z,1.60
2022-12-09T21:33:35.496Z,1.50
2022-12-09T21:36:27.511Z,1.50
2022-12-09T21:39:16.580Z,1.50
2022-12-09T21:42:04.099Z,1.50
2022-12-09T21:44:51.413Z,1.50
2022-12-09T21:47:40.267Z,1.50
2022-12-09T21:50:27.397Z,1.50
2022-12-09T21:53:14.943Z,1.50
2022-12-09T21:56:04.364Z,1.50
2022-12-09T21:58:54.907Z,1.50
2022-12-09T22:01:42.930Z,1.60
2022-12-09T22:04:30.157Z,1.60
2022-12-09T22:07:17.383Z,1.50
2022-12-09T22:10:05.047Z,1.40
2022-12-09T22:12:52.876Z,1.40
2022-12-09T22:15:40.042Z,1.50
2022-12-09T22:18:27.130Z,1.50
2022-12-09T22:21:26.399Z,1.50
2022-12-09T22:24:15.173Z,1.50
2022-12-09T22:27:02.482Z,1.40
2022-12-09T22:29:49.866Z,1.40
2022-12-09T22:32:41.132Z,1.30
2022-12-09T22:35:30.107Z,1.30
2022-12-09T22:38:17.590Z,1.30
2022-12-09T22:41:06.705Z,1.20
2022-12-09T22:43:55.451Z,1.20
2022-12-09T22:46:43.004Z,1.20
2022-12-09T22:49:30.678Z,1.20
2022-12-09T22:52:18.010Z,1.10
2022-12-09T22:55:06.420Z,1.00
2022-12-09T22:57:53.565Z,0.90
2022-12-09T23:00:43.890Z,1.00
2022-12-09T23:03:31.186Z,0.90
2022-12-09T23:06:18.932Z,0.80
2022-12-09T23:09:08.555Z,0.70
2022-12-09T23:11:55.894Z,0.60
2022-12-09T23:14:43.236Z,0.60
2022-12-09T23:17:30.367Z,0.50
2022-12-09T23:20:17.839Z,0.50
2022-12-09T23:23:04.979Z,0.40
2022-12-09T23:25:52.087Z,0.40
2022-12-09T23:28:45.221Z,0.30
2022-12-09T23:31:35.340Z,0.20
2022-12-09T23:34:23.660Z,0.10
2022-12-09T23:37:11.044Z,0.00
2022-12-09T23:39:58.176Z,-0.10
2022-12-09T23:42:45.592Z,-0.10
2022-12-09T23:45:34.084Z,-0.20
2022-12-09T23:48:21.190Z,-0.20
2022-12-09T23:51:16.646Z,-0.30
2022-12-09T23:54:06.433Z,-0.30
2022-12-09T23:56:53.873Z,-0.30
2022-12-09T23:59:41.062Z,-0.40
